createdAt,value
2023-04-09T00:02:45.778Z,100.00
2023-04-09T00:05:47.632Z,100.00
2023-04-09T00:08:49.929Z,100.00
2023-04-09T00:11:51.920Z,100.00
2023-04-09T00:14:53.717Z,100.00
2023-04-09T00:17:56.309Z,100.00
2023-04-09T00:20:58.145Z,100.00
2023-04-09T00:24:00.079Z,100.00
2023-04-09T00:27:01.980Z,100.00
2023-04-09T00:30:04.120Z,100.00
2023-04-09T00:33:06.225Z,100.00
2023-04-09T00:36:08.178Z,100.00
2023-04-09T00:39:09.967Z,100.00
2023-04-09T00:42:12.077Z,100.00
2023-04-09T00:45:14.000Z,100.00
2023-04-09T00:48:16.575Z,100.00
2023-04-09T00:51:18.447Z,100.00
2023-04-09T00:54:20.379Z,100.00
2023-04-09T00:57:22.221Z,100.00
2023-04-09T01:00:24.472Z,100.00
2023-04-09T01:03:26.427Z,100.00
2023-04-09T01:06:32.856Z,100.00
2023-04-09T01:09:41.850Z,100.00
2023-04-09T01:12:55.356Z,100.00
2023-04-09T01:16:00.276Z,100.00
2023-04-09T01:19:10.945Z,100.00
2023-04-09T01:22:30.645Z,100.00
2023-04-09T01:26:00.392Z,100.00
2023-04-09T01:29:03.486Z,100.00
2023-04-09T01:32:06.429Z,100.00
2023-04-09T01:35:09.171Z,100.00
2023-04-09T01:38:11.652Z,100.00
2023-04-09T01:41:15.659Z,100.00
2023-04-09T01:44:18.246Z,100.00
2023-04-09T01:47:20.352Z,100.00
2023-04-09T01:50:22.743Z,100.00
2023-04-09T01:53:28.261Z,100.00
2023-04-09T01:56:50.326Z,100.00
2023-04-09T01:59:52.303Z,100.00
2023-04-09T02:03:06.208Z,100.00
2023-04-09T02:06:15.588Z,100.00
2023-04-09T02:09:20.753Z,100.00
2023-04-09T02:12:24.057Z,100.00
2023-04-09T02:15:26.839Z,100.00
2023-04-09T02:18:30.138Z,100.00
2023-04-09T02:21:32.343Z,100.00
2023-04-09T02:24:34.130Z,100.00
2023-04-09T02:27:36.125Z,100.00
2023-04-09T02:30:38.093Z,100.00
2023-04-09T02:33:40.315Z,100.00
2023-04-09T02:36:42.159Z,100.00
2023-04-09T02:39:44.228Z,100.00
2023-04-09T02:42:46.895Z,100.00
2023-04-09T02:45:48.850Z,100.00
2023-04-09T02:48:50.872Z,100.00
2023-04-09T02:51:52.805Z,100.00
2023-04-09T02:54:54.628Z,100.00
2023-04-09T02:57:56.688Z,100.00
2023-04-09T03:00:58.859Z,100.00
2023-04-09T03:04:01.555Z,100.00
2023-04-09T03:07:03.567Z,100.00
2023-04-09T03:10:05.814Z,100.00
2023-04-09T03:13:07.950Z,100.00
2023-04-09T03:16:10.396Z,100.00
2023-04-09T03:19:12.257Z,100.00
2023-04-09T03:22:14.120Z,100.00
2023-04-09T03:25:16.129Z,100.00
2023-04-09T03:28:18.050Z,100.00
2023-04-09T03:31:20.430Z,100.00
2023-04-09T03:34:22.534Z,100.00
2023-04-09T03:37:24.381Z,100.00
2023-04-09T03:40:27.091Z,100.00
2023-04-09T03:43:28.900Z,100.00
2023-04-09T03:46:31.237Z,100.00
2023-04-09T03:49:35.481Z,100.00
2023-04-09T03:52:37.390Z,100.00
2023-04-09T03:55:39.364Z,100.00
2023-04-09T03:58:41.148Z,100.00
2023-04-09T04:01:43.045Z,100.00
2023-04-09T04:04:45.875Z,100.00
2023-04-09T04:07:47.829Z,100.00
2023-04-09T04:10:49.753Z,100.00
2023-04-09T04:13:51.541Z,100.00
2023-04-09T04:16:53.380Z,100.00
2023-04-09T04:19:55.463Z,100.00
2023-04-09T04:22:57.333Z,100.00
2023-04-09T04:25:59.076Z,100.00
2023-04-09T04:29:00.952Z,100.00
2023-04-09T04:32:02.919Z,100.00
2023-04-09T04:35:05.057Z,100.00
2023-04-09T04:38:06.892Z,100.00
2023-04-09T04:41:09.200Z,100.00
2023-04-09T04:44:11.245Z,100.00
2023-04-09T04:47:13.112Z,100.00
2023-04-09T04:50:15.171Z,100.00
2023-04-09T04:53:17.064Z,100.00
2023-04-09T04:56:19.010Z,100.00
2023-04-09T04:59:20.874Z,100.00
2023-04-09T05:02:22.819Z,100.00
2023-04-09T05:05:24.786Z,100.00
2023-04-09T05:08:26.967Z,100.00
2023-04-09T05:11:29.134Z,100.00
2023-04-09T05:14:31.579Z,100.00
2023-04-09T05:17:33.523Z,100.00
2023-04-09T05:20:35.898Z,100.00
2023-04-09T05:23:38.048Z,100.00
2023-04-09T05:26:40.029Z,100.00
2023-04-09T05:29:42.531Z,100.00
2023-04-09T05:32:44.745Z,100.00
2023-04-09T05:35:46.872Z,100.00
2023-04-09T05:38:49.397Z,100.00
2023-04-09T05:41:52.678Z,100.00
2023-04-09T05:44:57.592Z,100.00
2023-04-09T05:47:59.529Z,100.00
2023-04-09T05:51:01.574Z,100.00
2023-04-09T05:54:03.505Z,100.00
2023-04-09T05:57:05.355Z,100.00
2023-04-09T06:00:08.401Z,100.00
2023-04-09T06:03:12.448Z,100.00
2023-04-09T06:06:14.572Z,100.00
2023-04-09T06:09:16.744Z,100.00
2023-04-09T06:12:18.936Z,100.00
2023-04-09T06:15:21.231Z,100.00
2023-04-09T06:18:23.022Z,100.00
2023-04-09T06:21:24.840Z,100.00
2023-04-09T06:24:27.176Z,100.00
2023-04-09T06:27:29.053Z,100.00
2023-04-09T06:30:32.215Z,100.00
2023-04-09T06:33:34.057Z,100.00
2023-04-09T06:36:37.711Z,100.00
2023-04-09T06:39:47.651Z,100.00
2023-04-09T06:43:00.907Z,100.00
2023-04-09T06:46:03.105Z,100.00
2023-04-09T06:49:06.038Z,100.00
2023-04-09T06:52:08.033Z,100.00
2023-04-09T06:55:10.018Z,100.00
2023-04-09T06:58:12.010Z,100.00
2023-04-09T07:01:14.162Z,100.00
2023-04-09T07:04:16.737Z,100.00
2023-04-09T07:07:18.747Z,100.00
2023-04-09T07:10:21.311Z,100.00
2023-04-09T07:13:23.333Z,100.00
2023-04-09T07:16:25.476Z,99.86
2023-04-09T07:19:27.334Z,99.62
2023-04-09T07:22:29.963Z,99.27
2023-04-09T07:25:32.442Z,97.46
2023-04-09T07:28:34.252Z,96.99
2023-04-09T07:31:36.364Z,96.34
2023-04-09T07:34:38.680Z,94.58
2023-04-09T07:37:40.679Z,92.97
2023-04-09T07:40:43.057Z,92.18
2023-04-09T07:43:44.822Z,92.04
2023-04-09T07:46:46.723Z,92.30
2023-04-09T07:49:49.658Z,92.23
2023-04-09T07:52:51.764Z,88.78
2023-04-09T07:55:53.754Z,90.69
2023-04-09T07:58:55.756Z,91.41
2023-04-09T08:01:57.890Z,91.37
2023-04-09T08:04:59.835Z,91.43
2023-04-09T08:08:01.652Z,91.23
2023-04-09T08:11:04.007Z,91.13
2023-04-09T08:14:06.410Z,91.60
2023-04-09T08:17:08.532Z,91.16
2023-04-09T08:20:12.061Z,88.09
2023-04-09T08:23:15.558Z,88.17
2023-04-09T08:26:17.335Z,89.12
2023-04-09T08:29:19.592Z,87.75
2023-04-09T08:32:22.099Z,88.31
2023-04-09T08:35:23.912Z,86.65
2023-04-09T08:38:26.084Z,85.31
2023-04-09T08:41:29.593Z,84.67
2023-04-09T08:44:31.495Z,86.18
2023-04-09T08:47:34.412Z,86.14
2023-04-09T08:50:37.170Z,86.67
2023-04-09T08:53:39.290Z,85.11
2023-04-09T08:56:41.143Z,85.64
2023-04-09T08:59:43.071Z,85.33
2023-04-09T09:03:08.727Z,81.98
2023-04-09T09:06:21.953Z,85.34
2023-04-09T09:09:24.940Z,84.77
2023-04-09T09:12:35.549Z,84.87
2023-04-09T09:15:37.823Z,84.13
2023-04-09T09:18:41.579Z,83.79
2023-04-09T09:21:43.936Z,83.57
2023-04-09T09:24:51.220Z,81.75
2023-04-09T09:27:53.584Z,81.87
2023-04-09T09:31:08.461Z,83.65
2023-04-09T09:34:10.559Z,84.42
2023-04-09T09:37:28.506Z,83.99
2023-04-09T09:40:32.744Z,82.05
2023-04-09T09:43:42.280Z,81.79
2023-04-09T09:46:44.424Z,80.81
2023-04-09T09:49:51.735Z,79.95
2023-04-09T09:53:03.345Z,80.68
2023-04-09T09:56:06.994Z,80.14
2023-04-09T09:59:22.344Z,79.97
2023-04-09T10:02:24.625Z,76.62
2023-04-09T10:05:28.067Z,78.64
2023-04-09T10:08:33.621Z,78.96
2023-04-09T10:11:36.877Z,76.48
2023-04-09T10:14:39.955Z,75.89
2023-04-09T10:17:42.059Z,76.42
2023-04-09T10:20:52.088Z,75.50
2023-04-09T10:23:54.132Z,76.07
2023-04-09T10:27:12.114Z,75.57
2023-04-09T10:30:35.692Z,74.60
2023-04-09T10:33:38.784Z,74.20
2023-04-09T10:36:43.788Z,71.12
2023-04-09T10:39:47.353Z,72.66
2023-04-09T10:42:50.393Z,72.16
2023-04-09T10:45:54.321Z,72.69
2023-04-09T10:49:25.321Z,72.82
2023-04-09T10:52:31.370Z,73.05
2023-04-09T10:55:37.599Z,72.69
2023-04-09T10:58:39.445Z,72.80
2023-04-09T11:01:41.507Z,72.25
2023-04-09T11:05:17.734Z,71.44
2023-04-09T11:08:24.946Z,71.26
2023-04-09T11:11:29.322Z,70.64
2023-04-09T11:14:31.771Z,70.23
2023-04-09T11:17:36.849Z,68.76
2023-04-09T11:20:39.040Z,67.46
2023-04-09T11:23:42.507Z,68.58
2023-04-09T11:26:45.183Z,69.16
2023-04-09T11:29:47.514Z,68.27
2023-04-09T11:32:50.193Z,68.48
2023-04-09T11:35:52.212Z,65.76
2023-04-09T11:38:55.393Z,66.11
2023-04-09T11:41:58.219Z,67.05
2023-04-09T11:45:01.037Z,68.01
2023-04-09T11:48:03.052Z,68.52
2023-04-09T11:51:05.195Z,67.84
2023-04-09T11:54:06.994Z,65.26
2023-04-09T11:57:08.811Z,65.59
2023-04-09T12:00:12.396Z,64.13
2023-04-09T12:03:16.586Z,64.56
2023-04-09T12:06:20.752Z,64.21
2023-04-09T12:09:23.036Z,62.71
2023-04-09T12:12:24.806Z,61.48
2023-04-09T12:15:27.169Z,62.38
2023-04-09T12:18:29.412Z,61.76
2023-04-09T12:21:55.542Z,61.14
2023-04-09T12:24:57.323Z,60.09
2023-04-09T12:27:59.502Z,61.04
2023-04-09T12:31:03.357Z,61.07
2023-04-09T12:34:05.172Z,62.25
2023-04-09T12:37:07.072Z,62.25
2023-04-09T12:40:09.290Z,58.26
2023-04-09T12:43:11.765Z,59.53
2023-04-09T12:46:13.967Z,60.44
2023-04-09T12:49:16.121Z,56.64
2023-04-09T12:52:18.677Z,59.41
2023-04-09T12:55:20.472Z,59.69
2023-04-09T12:58:22.250Z,58.76
2023-04-09T13:01:24.096Z,56.72
2023-04-09T13:04:26.405Z,56.42
2023-04-09T13:07:29.518Z,56.30
2023-04-09T13:10:31.628Z,56.13
2023-04-09T13:13:33.637Z,56.33
2023-04-09T13:16:35.720Z,56.57
2023-04-09T13:19:37.859Z,56.34
2023-04-09T13:22:40.763Z,53.46
2023-04-09T13:25:42.774Z,53.64
2023-04-09T13:28:44.763Z,53.70
2023-04-09T13:31:46.642Z,53.70
2023-04-09T13:34:48.657Z,54.84
2023-04-09T13:37:50.573Z,54.40
2023-04-09T13:40:52.818Z,52.62
2023-04-09T13:43:54.802Z,50.82
2023-04-09T13:46:56.709Z,51.23
2023-04-09T13:49:58.557Z,50.19
2023-04-09T13:53:02.923Z,51.52
2023-04-09T13:56:05.291Z,51.45
2023-04-09T13:59:07.229Z,52.36
2023-04-09T14:02:09.314Z,51.88
2023-04-09T14:05:11.215Z,51.76
2023-04-09T14:08:13.042Z,51.23
2023-04-09T14:11:16.689Z,50.80
2023-04-09T14:14:19.919Z,51.27
2023-04-09T14:17:21.865Z,50.39
2023-04-09T14:20:24.713Z,51.61
2023-04-09T14:23:26.590Z,53.33
2023-04-09T14:26:29.249Z,52.59
2023-04-09T14:29:31.903Z,55.53
2023-04-09T14:32:34.137Z,56.16
2023-04-09T14:35:35.962Z,56.65
2023-04-09T14:38:37.874Z,56.30
2023-04-09T14:41:40.016Z,58.30
2023-04-09T14:44:41.814Z,60.12
2023-04-09T14:47:43.752Z,62.22
2023-04-09T14:50:45.877Z,62.05
2023-04-09T14:53:47.794Z,62.31
2023-04-09T14:56:49.662Z,61.79
2023-04-09T14:59:51.556Z,63.14
2023-04-09T15:02:54.250Z,63.06
2023-04-09T15:05:56.777Z,63.95
2023-04-09T15:08:58.768Z,63.82
2023-04-09T15:12:01.470Z,64.12
2023-04-09T15:15:07.021Z,62.77
2023-04-09T15:18:08.814Z,63.58
2023-04-09T15:21:10.664Z,65.12
2023-04-09T15:24:12.535Z,64.66
2023-04-09T15:27:14.431Z,64.69
2023-04-09T15:30:16.342Z,63.95
2023-04-09T15:33:18.116Z,63.33
2023-04-09T15:36:19.916Z,62.18
2023-04-09T15:39:24.461Z,63.42
2023-04-09T15:42:26.279Z,64.21
2023-04-09T15:45:28.204Z,65.93
2023-04-09T15:48:37.687Z,65.86
2023-04-09T15:51:39.753Z,66.52
2023-04-09T15:54:41.859Z,67.17
2023-04-09T15:57:48.850Z,66.24
2023-04-09T16:00:51.687Z,68.39
2023-04-09T16:03:53.795Z,67.02
2023-04-09T16:06:56.412Z,66.64
2023-04-09T16:09:58.450Z,68.42
2023-04-09T16:13:00.619Z,67.81
2023-04-09T16:16:02.600Z,68.35
2023-04-09T16:19:04.848Z,68.88
2023-04-09T16:22:07.442Z,68.80
2023-04-09T16:25:09.921Z,68.38
2023-04-09T16:28:14.165Z,69.26
2023-04-09T16:31:16.383Z,70.21
2023-04-09T16:34:18.333Z,69.83
2023-04-09T16:37:20.320Z,69.80
2023-04-09T16:40:24.416Z,69.93
2023-04-09T16:43:26.448Z,70.31
2023-04-09T16:46:28.435Z,70.82
2023-04-09T16:49:31.474Z,70.72
2023-04-09T16:52:35.408Z,71.07
2023-04-09T16:55:37.336Z,71.23
2023-04-09T16:58:39.308Z,71.54
2023-04-09T17:01:41.299Z,71.95
2023-04-09T17:04:43.726Z,72.29
2023-04-09T17:07:45.592Z,72.63
2023-04-09T17:10:47.525Z,72.86
2023-04-09T17:13:49.430Z,73.26
2023-04-09T17:16:52.989Z,73.68
2023-04-09T17:19:54.862Z,73.81
2023-04-09T17:22:56.994Z,74.13
2023-04-09T17:26:00.026Z,74.41
2023-04-09T17:29:02.035Z,75.06
2023-04-09T17:32:03.875Z,75.27
2023-04-09T17:35:07.522Z,75.77
2023-04-09T17:38:09.414Z,75.92
2023-04-09T17:41:11.372Z,76.44
2023-04-09T17:44:13.211Z,76.29
2023-04-09T17:47:15.013Z,76.65
2023-04-09T17:50:17.359Z,77.04
2023-04-09T17:53:19.460Z,77.71
2023-04-09T17:56:23.795Z,78.00
2023-04-09T17:59:26.846Z,78.58
2023-04-09T18:02:29.229Z,78.72
2023-04-09T18:05:31.592Z,78.84
2023-04-09T18:08:33.939Z,78.89
2023-04-09T18:11:35.771Z,79.19
2023-04-09T18:14:39.193Z,79.55
2023-04-09T18:17:41.129Z,79.95
2023-04-09T18:20:43.001Z,80.13
2023-04-09T18:23:44.923Z,80.26
2023-04-09T18:26:47.474Z,80.76
2023-04-09T18:29:49.508Z,80.61
2023-04-09T18:32:51.881Z,80.30
2023-04-09T18:35:53.735Z,79.87
2023-04-09T18:38:56.191Z,79.66
2023-04-09T18:41:58.079Z,79.78
2023-04-09T18:44:59.888Z,79.64
2023-04-09T18:48:04.359Z,79.51
2023-04-09T18:51:06.212Z,79.68
2023-04-09T18:54:08.339Z,79.84
2023-04-09T18:57:10.404Z,79.67
2023-04-09T19:00:12.923Z,79.88
2023-04-09T19:03:16.210Z,79.92
2023-04-09T19:06:19.593Z,80.42
2023-04-09T19:09:21.707Z,80.16
2023-04-09T19:12:23.872Z,80.14
2023-04-09T19:15:27.948Z,80.38
2023-04-09T19:18:30.736Z,80.44
2023-04-09T19:21:32.816Z,80.51
2023-04-09T19:24:35.196Z,80.46
2023-04-09T19:27:37.197Z,80.83
2023-04-09T19:30:39.164Z,80.82
2023-04-09T19:33:41.201Z,81.04
2023-04-09T19:36:43.698Z,81.56
2023-04-09T19:39:45.878Z,81.58
2023-04-09T19:42:51.307Z,82.14
2023-04-09T19:45:54.711Z,81.65
2023-04-09T19:48:56.764Z,82.12
2023-04-09T19:51:58.543Z,81.82
2023-04-09T19:55:01.809Z,82.21
2023-04-09T19:58:03.775Z,82.69
2023-04-09T20:01:05.667Z,83.65
2023-04-09T20:04:07.658Z,84.44
2023-04-09T20:07:09.498Z,85.68
2023-04-09T20:10:11.672Z,86.74
2023-04-09T20:13:13.958Z,86.03
2023-04-09T20:16:15.960Z,86.51
2023-04-09T20:19:19.679Z,86.56
2023-04-09T20:22:22.619Z,87.65
2023-04-09T20:25:25.291Z,87.80
2023-04-09T20:28:27.731Z,87.28
2023-04-09T20:31:30.942Z,89.28
2023-04-09T20:34:32.814Z,88.51
2023-04-09T20:37:34.751Z,88.90
2023-04-09T20:40:39.886Z,91.17
2023-04-09T20:43:41.672Z,91.81
2023-04-09T20:46:43.461Z,93.82
2023-04-09T20:49:46.559Z,91.68
2023-04-09T20:52:49.585Z,91.30
2023-04-09T20:55:54.578Z,91.07
2023-04-09T20:58:58.448Z,93.11
2023-04-09T21:02:00.434Z,91.91
2023-04-09T21:05:11.567Z,91.82
2023-04-09T21:08:23.825Z,91.72
2023-04-09T21:11:25.815Z,91.66
2023-04-09T21:14:27.766Z,91.65
2023-04-09T21:17:31.699Z,91.80
2023-04-09T21:20:33.805Z,94.36
2023-04-09T21:23:36.009Z,94.70
2023-04-09T21:26:49.970Z,93.35
2023-04-09T21:29:53.702Z,93.84
2023-04-09T21:32:55.583Z,93.36
2023-04-09T21:36:12.095Z,93.18
2023-04-09T21:39:17.371Z,93.34
2023-04-09T21:42:19.158Z,93.99
2023-04-09T21:45:21.174Z,93.68
2023-04-09T21:48:23.372Z,95.09
2023-04-09T21:51:25.174Z,95.03
2023-04-09T21:54:27.192Z,97.58
2023-04-09T21:57:29.186Z,97.13
2023-04-09T22:00:31.519Z,96.36
2023-04-09T22:03:33.817Z,95.82
2023-04-09T22:06:36.018Z,95.62
2023-04-09T22:09:37.993Z,95.21
2023-04-09T22:12:40.217Z,95.13
2023-04-09T22:15:42.780Z,95.01
2023-04-09T22:18:45.246Z,95.19
2023-04-09T22:21:50.517Z,95.16
2023-04-09T22:24:52.277Z,95.25
2023-04-09T22:27:54.136Z,95.34
2023-04-09T22:30:59.310Z,95.43
2023-04-09T22:34:09.887Z,95.29
2023-04-09T22:37:12.198Z,95.20
2023-04-09T22:40:16.044Z,95.18
2023-04-09T22:43:18.052Z,95.23
2023-04-09T22:46:19.791Z,95.26
2023-04-09T22:49:23.649Z,95.55
2023-04-09T22:52:25.562Z,95.68
2023-04-09T22:55:27.590Z,95.74
2023-04-09T22:58:29.568Z,95.76
2023-04-09T23:01:31.531Z,95.78
2023-04-09T23:04:34.809Z,95.88
2023-04-09T23:07:36.707Z,95.65
2023-04-09T23:10:38.648Z,95.63
2023-04-09T23:13:40.607Z,95.67
2023-04-09T23:16:42.426Z,95.87
2023-04-09T23:19:44.450Z,96.01
2023-04-09T23:22:47.471Z,95.91
2023-04-09T23:25:49.318Z,95.93
2023-04-09T23:28:51.174Z,96.06
2023-04-09T23:31:53.001Z,96.10
2023-04-09T23:34:57.215Z,96.16
2023-04-09T23:37:58.984Z,96.24
2023-04-09T23:41:01.500Z,96.18
2023-04-09T23:44:03.318Z,96.15
2023-04-09T23:47:06.589Z,96.08
2023-04-09T23:50:08.856Z,96.10
2023-04-09T23:53:10.986Z,96.10
2023-04-09T23:56:14.168Z,96.00
2023-04-09T23:59:16.284Z,96.08
